Time;durP1;ratioP1;P1;durP2;ratioP2;P2;SDS_P1;SDS_P2;PMS_P1;PMS_P2;Temp;Humidity;BMP_temperature;BMP_pressure;BME280_temperature;BME280_humidity;BME280_pressure;Samples;Min_cycle;Max_cycle;Signal;HPM_P1;HPM_P2
2024/01/06 00:01:41;;;;;;;7.13;5.05;;;9.80;83.30;;;;;;4764915;30;20111;-94
2024/01/06 00:04:07;;;;;;;8.13;6.15;;;9.70;83.30;;;;;;4745314;30;20032;-91
2024/01/06 00:06:32;;;;;;;7.35;5.25;;;9.70;83.30;;;;;;4749782;30;20047;-94
2024/01/06 00:08:58;;;;;;;7.93;5.78;;;9.70;83.30;;;;;;4729736;30;20485;-91
2024/01/06 00:11:24;;;;;;;7.47;4.95;;;9.80;83.30;;;;;;4736463;30;20061;-92
2024/01/06 00:13:50;;;;;;;7.95;5.55;;;9.70;83.20;;;;;;4741803;30;20066;-93
2024/01/06 00:16:19;;;;;;;7.97;5.70;;;9.70;83.20;;;;;;4747412;30;20404;-93
2024/01/06 00:18:48;;;;;;;7.40;5.72;;;9.70;83.20;;;;;;4728814;30;20127;-91
2024/01/06 00:21:14;;;;;;;7.40;5.32;;;9.70;83.30;;;;;;4734467;30;20036;-91
2024/01/06 00:23:41;;;;;;;6.93;5.03;;;9.70;83.20;;;;;;4746854;30;20137;-93
2024/01/06 00:26:08;;;;;;;6.90;4.82;;;9.70;83.20;;;;;;4733429;30;20024;-94
2024/01/06 00:28:34;;;;;;;7.22;5.20;;;9.70;83.20;;;;;;4760291;30;20485;-93
2024/01/06 00:30:59;;;;;;;7.85;5.60;;;9.70;83.20;;;;;;4747021;30;20039;-92
2024/01/06 00:33:25;;;;;;;7.47;5.45;;;9.60;83.30;;;;;;4746948;30;20554;-91
2024/01/06 00:35:51;;;;;;;8.52;5.80;;;9.70;83.30;;;;;;4747208;30;20044;-92
2024/01/06 00:38:17;;;;;;;7.80;5.28;;;9.60;83.30;;;;;;4763456;30;20032;-93
2024/01/06 00:40:42;;;;;;;6.93;4.93;;;9.60;83.30;;;;;;4744231;30;20055;-91
2024/01/06 00:43:08;;;;;;;7.32;5.38;;;9.60;83.20;;;;;;4746179;30;20035;-91
2024/01/06 00:45:34;;;;;;;7.25;5.18;;;9.60;83.20;;;;;;4749909;30;20052;-93
2024/01/06 00:48:00;;;;;;;8.27;5.82;;;9.60;83.10;;;;;;4762267;30;20129;-90
2024/01/06 00:50:25;;;;;;;7.30;5.20;;;9.70;83.20;;;;;;4762917;30;20061;-92
2024/01/06 00:52:52;;;;;;;7.55;5.72;;;9.60;83.10;;;;;;4734165;30;20039;-92
2024/01/06 00:55:22;;;;;;;7.88;5.60;;;9.60;83.00;;;;;;4764481;30;20042;-93
2024/01/06 00:57:48;;;;;;;7.45;5.22;;;9.60;83.10;;;;;;4760887;30;20039;-91
2024/01/06 01:00:14;;;;;;;7.55;5.47;;;9.60;83.10;;;;;;4728170;30;20064;-92
2024/01/06 01:02:40;;;;;;;7.32;5.10;;;9.60;83.10;;;;;;4762919;30;20060;-92
2024/01/06 01:05:09;;;;;;;7.90;5.18;;;9.60;83.10;;;;;;4767197;30;20525;-92
2024/01/06 01:07:35;;;;;;;8.05;5.72;;;9.60;83.10;;;;;;4750261;30;20040;-93
2024/01/06 01:10:01;;;;;;;7.43;4.93;;;9.60;83.20;;;;;;4766770;30;20070;-93
2024/01/06 01:12:26;;;;;;;7.35;5.25;;;9.60;83.10;;;;;;4761043;30;20032;-93
2024/01/06 01:14:53;;;;;;;6.88;4.93;;;9.50;83.10;;;;;;4764433;30;20484;-93
2024/01/06 01:17:19;;;;;;;7.05;5.05;;;9.60;83.10;;;;;;4764815;30;20032;-92
2024/01/06 01:19:46;;;;;;;7.00;5.00;;;9.50;83.00;;;;;;4749930;30;21397;-94
2024/01/06 01:22:12;;;;;;;7.53;5.15;;;9.50;83.00;;;;;;4762604;30;20028;-89
2024/01/06 01:24:37;;;;;;;7.47;5.15;;;9.50;83.10;;;;;;4754252;30;20368;-91
2024/01/06 01:27:03;;;;;;;6.70;4.47;;;9.50;83.10;;;;;;4757282;30;20059;-93
2024/01/06 01:29:29;;;;;;;7.95;5.50;;;9.50;83.20;;;;;;4752695;30;20044;-91
2024/01/06 01:31:55;;;;;;;7.45;5.32;;;9.40;83.10;;;;;;4754181;30;20099;-91
2024/01/06 01:34:21;;;;;;;7.43;5.07;;;9.40;83.20;;;;;;4738581;30;20043;-92
2024/01/06 01:36:46;;;;;;;7.30;4.95;;;9.40;83.20;;;;;;4750379;30;20356;-92
2024/01/06 01:39:12;;;;;;;7.78;5.43;;;9.40;83.20;;;;;;4764644;30;20047;-93
2024/01/06 01:41:39;;;;;;;6.90;4.80;;;9.40;83.20;;;;;;4738415;30;20032;-93
2024/01/06 01:44:05;;;;;;;7.07;5.05;;;9.40;83.20;;;;;;4765105;30;20048;-89
2024/01/06 01:46:31;;;;;;;6.97;4.90;;;9.40;83.20;;;;;;4767114;30;20706;-92
2024/01/06 01:49:01;;;;;;;7.22;5.20;;;9.40;83.20;;;;;;4740785;30;20059;-94
2024/01/06 01:51:30;;;;;;;6.30;4.53;;;9.40;83.20;;;;;;4768959;30;20035;-89
2024/01/06 01:54:02;;;;;;;7.03;5.22;;;9.40;83.20;;;;;;4755689;30;20040;-92
2024/01/06 01:56:33;;;;;;;6.82;4.80;;;9.40;83.30;;;;;;4753318;30;20032;-92
2024/01/06 01:59:05;;;;;;;7.22;4.80;;;9.30;83.20;;;;;;4744457;30;20048;-92
2024/01/06 02:01:32;;;;;;;7.07;5.35;;;9.30;83.20;;;;;;4749385;30;20040;-92
2024/01/06 02:04:00;;;;;;;7.07;4.90;;;9.30;83.20;;;;;;4739383;30;20031;-93
2024/01/06 02:06:26;;;;;;;7.10;4.68;;;9.30;83.30;;;;;;4738573;30;20024;-92
2024/01/06 02:08:51;;;;;;;6.80;4.82;;;9.30;83.30;;;;;;4754066;30;20031;-91
2024/01/06 02:11:17;;;;;;;6.53;4.20;;;9.30;83.30;;;;;;4754313;30;20398;-91
2024/01/06 02:13:43;;;;;;;7.28;5.10;;;9.30;83.30;;;;;;4767350;30;20544;-93
2024/01/06 02:16:09;;;;;;;7.63;5.20;;;9.30;83.30;;;;;;4750798;30;20543;-94
2024/01/06 02:18:34;;;;;;;7.80;5.10;;;9.30;83.30;;;;;;4756345;30;20032;-93
2024/01/06 02:21:02;;;;;;;7.20;5.10;;;9.30;83.30;;;;;;4771811;30;20106;-92
2024/01/06 02:23:29;;;;;;;8.23;5.57;;;9.30;83.30;;;;;;4755591;30;20035;-92
2024/01/06 02:25:55;;;;;;;7.07;5.13;;;9.30;83.30;;;;;;4752068;30;20063;-92
2024/01/06 02:28:21;;;;;;;6.88;4.65;;;9.30;83.30;;;;;;4770879;30;20074;-95
2024/01/06 02:30:48;;;;;;;6.85;4.93;;;9.20;83.20;;;;;;4754938;30;20060;-93
2024/01/06 02:33:14;;;;;;;7.88;5.32;;;9.30;83.30;;;;;;4749893;30;20073;-93
2024/01/06 02:35:40;;;;;;;7.55;5.38;;;9.30;83.30;;;;;;4768981;30;20051;-93
2024/01/06 02:38:07;;;;;;;6.93;4.88;;;9.20;83.20;;;;;;4765908;30;20040;-93
2024/01/06 02:40:34;;;;;;;7.85;5.45;;;9.20;83.30;;;;;;4751019;30;20043;-92
2024/01/06 02:43:00;;;;;;;6.97;4.80;;;9.20;83.30;;;;;;4739996;30;20059;-92
2024/01/06 02:45:26;;;;;;;6.82;4.57;;;9.20;83.30;;;;;;4753819;30;20058;-91
2024/01/06 02:47:52;;;;;;;8.98;5.57;;;9.20;83.30;;;;;;4752325;30;20054;-93
2024/01/06 02:50:18;;;;;;;7.93;5.35;;;9.20;83.20;;;;;;4769279;30;20381;-94
2024/01/06 02:52:47;;;;;;;8.80;5.82;;;9.20;83.20;;;;;;4767839;30;20035;-92
2024/01/06 02:55:13;;;;;;;8.50;6.10;;;9.20;83.20;;;;;;4750065;30;20046;-93
2024/01/06 02:57:40;;;;;;;8.80;6.25;;;9.20;83.20;;;;;;4768172;30;20028;-93
2024/01/06 03:00:07;;;;;;;8.70;6.00;;;9.10;83.10;;;;;;4752786;30;20105;-91
2024/01/06 03:02:36;;;;;;;8.45;5.95;;;9.20;83.20;;;;;;4750386;30;20121;-92
2024/01/06 03:05:04;;;;;;;7.90;5.70;;;9.10;83.10;;;;;;4735223;30;20054;-93
2024/01/06 03:07:30;;;;;;;8.68;5.65;;;9.20;83.20;;;;;;4768946;30;20028;-92
2024/01/06 03:09:56;;;;;;;8.88;6.53;;;9.10;83.20;;;;;;4737876;30;20425;-93
2024/01/06 03:12:23;;;;;;;9.80;6.25;;;9.10;83.10;;;;;;4737186;30;20035;-94
2024/01/06 03:14:49;;;;;;;9.05;6.30;;;9.10;83.20;;;;;;4749403;30;20039;-94
2024/01/06 03:17:14;;;;;;;9.88;6.65;;;9.10;83.10;;;;;;4764663;30;20028;-92
2024/01/06 03:19:40;;;;;;;9.40;6.88;;;9.10;83.10;;;;;;4767341;30;20027;-91
2024/01/06 03:22:07;;;;;;;9.38;6.38;;;9.10;83.20;;;;;;4752364;30;20024;-93
2024/01/06 03:24:37;;;;;;;8.88;6.13;;;9.10;83.20;;;;;;4753843;30;20044;-94
2024/01/06 03:27:02;;;;;;;8.60;6.05;;;9.10;83.20;;;;;;4755087;30;20036;-94
2024/01/06 03:29:28;;;;;;;8.98;6.30;;;9.10;83.20;;;;;;4754476;30;20039;-91
2024/01/06 03:31:54;;;;;;;9.02;6.40;;;9.10;83.20;;;;;;4740130;30;20028;-93
2024/01/06 03:34:20;;;;;;;9.15;6.13;;;9.00;83.20;;;;;;4754994;30;20129;-93
2024/01/06 03:36:47;;;;;;;8.48;6.03;;;9.10;83.20;;;;;;4753778;30;20111;-92
2024/01/06 03:39:13;;;;;;;8.88;6.10;;;9.00;83.20;;;;;;4734610;30;20021;-92
2024/01/06 03:41:39;;;;;;;9.15;6.53;;;9.00;83.20;;;;;;4754381;30;20115;-93
2024/01/06 03:44:05;;;;;;;9.95;6.90;;;9.00;83.20;;;;;;4754147;30;20063;-89
2024/01/06 03:46:33;;;;;;;8.77;6.13;;;9.00;83.20;;;;;;4750234;30;20515;-91
2024/01/06 03:49:01;;;;;;;9.40;6.75;;;9.00;83.20;;;;;;4769314;30;20035;-94
2024/01/06 03:51:26;;;;;;;9.95;6.63;;;9.00;83.20;;;;;;4737222;30;20032;-91
2024/01/06 03:53:52;;;;;;;8.75;6.20;;;9.00;83.20;;;;;;4737242;30;20031;-92
2024/01/06 03:56:18;;;;;;;9.88;6.97;;;8.90;83.10;;;;;;4753376;30;20563;-92
2024/01/06 03:58:44;;;;;;;9.88;6.55;;;9.00;83.20;;;;;;4752991;30;20035;-93
2024/01/06 04:01:10;;;;;;;8.93;6.18;;;9.00;83.20;;;;;;4747540;30;20133;-92
2024/01/06 04:03:36;;;;;;;11.13;7.22;;;9.00;83.20;;;;;;4768204;30;20031;-91
2024/01/06 04:06:02;;;;;;;8.93;6.40;;;9.00;83.30;;;;;;4754750;30;20040;-93
2024/01/06 04:08:27;;;;;;;10.27;6.53;;;8.90;83.20;;;;;;4771848;29;20059;-92
2024/01/06 04:10:53;;;;;;;8.45;6.55;;;8.90;83.20;;;;;;4751879;30;20509;-93
2024/01/06 04:13:19;;;;;;;10.95;7.72;;;8.90;83.20;;;;;;4743812;30;20040;-92
2024/01/06 04:15:45;;;;;;;8.95;6.40;;;8.90;83.20;;;;;;4767744;30;20047;-92
2024/01/06 04:18:11;;;;;;;8.98;6.57;;;8.90;83.20;;;;;;4748186;30;20094;-91
2024/01/06 04:20:37;;;;;;;10.10;7.20;;;8.90;83.20;;;;;;4747446;30;20040;-92
2024/01/06 04:23:03;;;;;;;10.40;7.00;;;8.90;83.20;;;;;;4753902;30;20060;-92
2024/01/06 04:25:28;;;;;;;10.27;6.82;;;8.90;83.20;;;;;;4766713;30;20069;-94
2024/01/06 04:27:55;;;;;;;9.60;6.85;;;8.90;83.30;;;;;;4749048;30;20073;-93
2024/01/06 04:30:21;;;;;;;9.93;6.88;;;8.90;83.30;;;;;;4749537;30;20123;-92
2024/01/06 04:32:50;;;;;;;9.80;6.97;;;8.90;83.20;;;;;;4756892;30;20126;-92
2024/01/06 04:35:16;;;;;;;8.63;6.15;;;8.90;83.20;;;;;;4767112;30;20032;-92
2024/01/06 04:37:42;;;;;;;9.70;6.78;;;8.80;83.10;;;;;;4739930;30;20031;-93
2024/01/06 04:40:10;;;;;;;10.07;6.85;;;8.80;83.20;;;;;;4739350;30;20096;-92
2024/01/06 04:42:36;;;;;;;10.82;7.82;;;8.80;83.20;;;;;;4745471;30;20058;-94
2024/01/06 04:45:05;;;;;;;10.85;7.32;;;8.80;83.20;;;;;;4760432;30;20132;-92
2024/01/06 04:47:30;;;;;;;9.77;6.75;;;8.80;83.20;;;;;;4770322;30;20130;-95
2024/01/06 04:49:56;;;;;;;10.52;7.50;;;8.80;83.10;;;;;;4771329;30;20047;-90
2024/01/06 04:52:22;;;;;;;10.45;7.57;;;8.80;83.70;;;;;;4740920;30;20393;-91
2024/01/06 04:54:48;;;;;;;10.95;7.57;;;8.80;83.10;;;;;;4754612;30;20044;-93
2024/01/06 04:57:15;;;;;;;10.93;7.85;;;8.80;83.10;;;;;;4742260;30;20024;-91
2024/01/06 04:59:41;;;;;;;9.60;7.03;;;8.80;83.10;;;;;;4738017;30;20097;-91
2024/01/06 05:02:07;;;;;;;9.75;7.18;;;8.80;83.10;;;;;;4756342;30;20451;-92
2024/01/06 05:04:34;;;;;;;11.00;7.90;;;8.80;83.10;;;;;;4756978;30;20028;-91
2024/01/06 05:07:00;;;;;;;10.90;7.30;;;8.70;83.00;;;;;;4767751;30;21870;-93
2024/01/06 05:09:26;;;;;;;10.45;7.40;;;8.80;83.10;;;;;;4747916;30;20040;-92
2024/01/06 05:11:51;;;;;;;11.23;7.95;;;8.70;83.00;;;;;;4756468;30;20067;-93
2024/01/06 05:14:20;;;;;;;9.50;7.28;;;8.70;83.00;;;;;;4768972;30;20096;-93
2024/01/06 05:16:48;;;;;;;10.32;7.20;;;8.70;83.00;;;;;;4755390;30;20060;-93
2024/01/06 05:19:20;;;;;;;10.10;7.70;;;8.70;83.00;;;;;;4751537;30;20058;-93
2024/01/06 05:21:48;;;;;;;9.80;7.40;;;8.70;83.00;;;;;;4759594;30;20093;-93
2024/01/06 05:24:13;;;;;;;9.52;6.95;;;8.70;83.00;;;;;;4755824;30;20109;-92
2024/01/06 05:26:40;;;;;;;10.23;6.93;;;8.70;83.00;;;;;;4771059;30;20055;-93
2024/01/06 05:29:06;;;;;;;8.75;6.45;;;8.70;83.00;;;;;;4743932;30;20024;-92
2024/01/06 05:31:32;;;;;;;9.95;7.15;;;8.70;83.10;;;;;;4769468;30;20028;-92
2024/01/06 05:33:58;;;;;;;9.38;6.63;;;8.60;83.00;;;;;;4769630;30;20032;-93
2024/01/06 05:36:25;;;;;;;8.77;6.43;;;8.60;83.10;;;;;;4753202;30;20450;-92
2024/01/06 05:38:51;;;;;;;9.82;6.63;;;8.60;83.10;;;;;;4765555;30;20028;-92
2024/01/06 05:41:18;;;;;;;8.20;6.00;;;8.60;83.10;;;;;;4755417;30;20450;-93
2024/01/06 05:43:44;;;;;;;8.90;6.18;;;8.60;83.00;;;;;;4751588;30;20149;-92
2024/01/06 05:46:10;;;;;;;8.50;6.25;;;8.60;83.00;;;;;;4754551;30;20089;-93
2024/01/06 05:48:40;;;;;;;8.68;5.97;;;8.60;83.00;;;;;;4768626;30;20024;-94
2024/01/06 05:51:06;;;;;;;8.75;5.97;;;8.60;83.10;;;;;;4753044;30;20031;-93
2024/01/06 05:53:32;;;;;;;8.20;5.68;;;8.50;83.10;;;;;;4770406;30;20040;-93
2024/01/06 05:55:58;;;;;;;8.65;5.70;;;8.60;83.10;;;;;;4771416;30;20115;-91
2024/01/06 05:58:24;;;;;;;8.38;6.35;;;8.50;83.00;;;;;;4753410;30;20477;-92
2024/01/06 06:00:50;;;;;;;8.77;5.80;;;8.50;83.10;;;;;;4768340;30;20020;-92
2024/01/06 06:03:16;;;;;;;8.45;5.50;;;8.50;83.00;;;;;;4753132;30;20058;-93
2024/01/06 06:05:42;;;;;;;8.75;5.72;;;8.50;83.00;;;;;;4755062;30;20658;-93
2024/01/06 06:08:08;;;;;;;8.75;5.95;;;8.50;83.00;;;;;;4733726;30;20115;-92
2024/01/06 06:10:59;;;;;;;7.43;5.35;;;8.40;82.90;;;;;;4766382;30;20032;-93
2024/01/06 06:13:19;;;;;;;7.82;5.78;;;8.50;83.00;;;;;;4767698;30;20584;-92
2024/01/06 06:15:48;;;;;;;8.10;5.80;;;8.50;83.60;;;;;;4754719;30;20055;-92
2024/01/06 06:18:16;;;;;;;8.70;6.07;;;8.50;83.00;;;;;;4751822;30;20032;-92
2024/01/06 06:20:43;;;;;;;7.05;5.38;;;8.40;82.90;;;;;;4749857;30;20062;-92
2024/01/06 06:23:09;;;;;;;7.95;5.55;;;8.40;82.90;;;;;;4758530;30;20048;-92
2024/01/06 06:25:39;;;;;;;7.90;5.85;;;8.40;82.90;;;;;;4749517;30;20125;-92
2024/01/06 06:28:06;;;;;;;8.43;6.22;;;8.40;83.00;;;;;;4759003;30;20043;-89
2024/01/06 06:30:32;;;;;;;8.00;5.78;;;8.40;83.00;;;;;;4758537;30;20039;-93
2024/01/06 06:32:58;;;;;;;7.95;5.57;;;8.40;83.10;;;;;;4772283;30;20028;-91
2024/01/06 06:35:26;;;;;;;8.45;6.30;;;8.40;83.10;;;;;;4752832;30;20102;-92
2024/01/06 06:37:51;;;;;;;8.82;6.20;;;8.40;83.10;;;;;;4741128;30;20020;-91
2024/01/06 06:40:17;;;;;;;8.13;5.78;;;8.40;83.10;;;;;;4754438;30;20542;-91
2024/01/06 06:42:43;;;;;;;8.73;6.13;;;8.30;83.10;;;;;;4758602;30;20043;-93
2024/01/06 06:45:11;;;;;;;7.55;5.43;;;8.30;83.10;;;;;;4769239;30;20052;-92
2024/01/06 06:47:38;;;;;;;8.38;5.95;;;8.30;83.10;;;;;;4771794;30;20476;-93
2024/01/06 06:50:09;;;;;;;8.48;6.05;;;8.30;83.10;;;;;;4755815;30;20032;-93
2024/01/06 06:52:35;;;;;;;8.40;6.57;;;8.30;83.00;;;;;;4737761;30;20036;-92
2024/01/06 06:55:00;;;;;;;8.02;6.15;;;8.30;83.00;;;;;;4754583;30;20499;-92
2024/01/06 06:57:26;;;;;;;9.27;6.18;;;8.30;83.00;;;;;;4752888;30;20036;-93
2024/01/06 06:59:52;;;;;;;8.38;6.18;;;8.30;83.00;;;;;;4754672;30;20043;-92
2024/01/06 07:02:18;;;;;;;8.57;6.38;;;8.20;83.00;;;;;;4755674;30;20023;-92
2024/01/06 07:04:45;;;;;;;7.63;5.63;;;8.20;83.00;;;;;;4754406;30;20054;-91
2024/01/06 07:07:11;;;;;;;7.93;5.97;;;8.20;83.00;;;;;;4750863;30;20111;-92
2024/01/06 07:09:37;;;;;;;7.65;5.72;;;8.20;83.10;;;;;;4763462;30;20035;-92
2024/01/06 07:12:03;;;;;;;7.95;5.78;;;8.20;83.00;;;;;;4737637;30;20035;-92
2024/01/06 07:14:28;;;;;;;7.65;5.63;;;8.20;83.00;;;;;;4751250;30;20040;-92
2024/01/06 07:16:54;;;;;;;7.55;5.45;;;8.20;83.00;;;;;;4749532;30;20028;-91
2024/01/06 07:19:20;;;;;;;7.57;5.75;;;8.20;83.00;;;;;;4751519;30;20141;-92
2024/01/06 07:21:46;;;;;;;8.35;6.20;;;8.20;83.10;;;;;;4761454;30;20493;-92
2024/01/06 07:24:13;;;;;;;8.20;6.18;;;8.20;83.00;;;;;;4758259;30;20032;-93
2024/01/06 07:26:40;;;;;;;8.13;6.45;;;8.20;83.20;;;;;;4768535;30;20268;-93
2024/01/06 07:29:07;;;;;;;7.63;5.93;;;8.10;83.00;;;;;;4762308;30;20043;-92
2024/01/06 07:31:34;;;;;;;8.20;6.60;;;8.10;83.00;;;;;;4755293;30;20047;-92
2024/01/06 07:34:01;;;;;;;7.85;6.00;;;8.10;83.00;;;;;;4767522;30;20032;-94
2024/01/06 07:36:29;;;;;;;6.80;5.30;;;8.10;83.00;;;;;;4754370;30;20055;-91
2024/01/06 07:38:57;;;;;;;8.27;6.35;;;8.10;83.00;;;;;;4768092;30;20146;-89
2024/01/06 07:41:23;;;;;;;9.27;6.32;;;8.10;83.00;;;;;;4738657;30;20062;-89
2024/01/06 07:43:49;;;;;;;7.68;5.90;;;8.10;83.00;;;;;;4766873;30;20073;-91
2024/01/06 07:46:16;;;;;;;8.27;5.88;;;8.10;83.00;;;;;;4754045;30;20063;-91
2024/01/06 07:48:42;;;;;;;8.45;5.88;;;8.10;83.00;;;;;;4771579;30;20044;-89
2024/01/06 07:51:08;;;;;;;7.70;6.25;;;8.10;83.00;;;;;;4773018;30;20069;-90
2024/01/06 07:53:33;;;;;;;7.90;6.10;;;8.00;83.00;;;;;;4757189;30;20039;-93
2024/01/06 07:55:59;;;;;;;7.72;6.00;;;8.00;83.00;;;;;;4755747;30;20043;-89
2024/01/06 07:58:27;;;;;;;7.03;5.45;;;8.00;83.00;;;;;;4772049;30;20032;-88
2024/01/06 08:00:56;;;;;;;7.57;5.78;;;8.00;83.00;;;;;;4757001;30;20035;-90
2024/01/06 08:03:23;;;;;;;7.20;5.60;;;8.00;83.00;;;;;;4755998;30;20031;-88
2024/01/06 08:05:49;;;;;;;7.65;5.72;;;8.00;83.00;;;;;;4755356;30;20028;-87
2024/01/06 08:08:16;;;;;;;7.53;6.05;;;8.00;82.90;;;;;;4755861;30;20039;-90
2024/01/06 08:10:43;;;;;;;8.25;5.97;;;8.00;83.00;;;;;;4765527;30;20054;-85
2024/01/06 08:13:08;;;;;;;7.45;5.72;;;8.00;83.00;;;;;;4753924;30;20351;-89
2024/01/06 08:15:34;;;;;;;9.05;6.07;;;7.90;82.90;;;;;;4764745;30;20131;-93
2024/01/06 08:18:00;;;;;;;7.13;5.75;;;8.00;83.00;;;;;;4751755;30;20053;-88
2024/01/06 08:20:26;;;;;;;7.15;5.55;;;7.90;82.90;;;;;;4751082;30;20032;-88
2024/01/06 08:22:53;;;;;;;7.82;5.82;;;7.90;82.90;;;;;;4736571;30;20665;-90
2024/01/06 08:25:21;;;;;;;8.23;5.72;;;7.90;82.90;;;;;;4753200;30;20030;-92
2024/01/06 08:27:47;;;;;;;7.30;5.43;;;7.90;83.00;;;;;;4738232;30;20130;-91
2024/01/06 08:30:13;;;;;;;7.35;5.60;;;7.90;82.90;;;;;;4737321;30;20074;-90
2024/01/06 08:32:40;;;;;;;7.50;5.82;;;7.90;82.90;;;;;;4736701;30;20194;-89
2024/01/06 08:35:09;;;;;;;7.88;5.93;;;7.90;83.00;;;;;;4761021;30;20556;-87
2024/01/06 08:37:35;;;;;;;7.63;5.82;;;7.90;83.00;;;;;;4746359;30;20051;-90
2024/01/06 08:40:01;;;;;;;7.78;5.70;;;7.80;82.90;;;;;;4750084;30;20024;-89
2024/01/06 08:42:27;;;;;;;7.50;5.63;;;7.80;82.90;;;;;;4754213;30;20131;-88
2024/01/06 08:44:52;;;;;;;7.55;5.85;;;7.80;82.90;;;;;;4766783;30;20048;-89
2024/01/06 08:47:20;;;;;;;7.80;5.35;;;7.90;83.00;;;;;;4762871;30;20051;-87
2024/01/06 08:49:46;;;;;;;7.07;5.72;;;7.80;82.90;;;;;;4771941;30;20509;-89
2024/01/06 08:52:12;;;;;;;7.72;5.35;;;7.80;82.90;;;;;;4745753;30;20055;-88
2024/01/06 08:54:38;;;;;;;7.47;5.30;;;7.80;82.90;;;;;;4756655;30;20118;-88
2024/01/06 08:57:04;;;;;;;7.38;5.63;;;7.80;82.90;;;;;;4752126;30;20028;-89
2024/01/06 08:59:32;;;;;;;7.43;5.07;;;7.80;83.00;;;;;;4767940;30;20040;-90
2024/01/06 09:02:01;;;;;;;6.97;5.40;;;7.70;82.90;;;;;;4770251;30;20560;-88
2024/01/06 09:04:27;;;;;;;7.63;5.43;;;7.70;82.90;;;;;;4742472;30;20026;-89
2024/01/06 09:06:53;;;;;;;7.10;5.45;;;7.70;82.90;;;;;;4754209;30;20107;-90
2024/01/06 09:09:18;;;;;;;7.60;5.40;;;7.70;82.90;;;;;;4761580;30;20124;-90
2024/01/06 09:11:46;;;;;;;7.60;5.45;;;7.80;83.00;;;;;;4751085;30;20036;-91
2024/01/06 09:14:12;;;;;;;7.20;5.28;;;7.70;82.90;;;;;;4747486;30;20039;-85
2024/01/06 09:16:39;;;;;;;7.90;5.45;;;7.70;82.90;;;;;;4762044;30;20028;-89
2024/01/06 09:19:06;;;;;;;8.20;6.38;;;7.70;82.90;;;;;;4745190;30;20043;-87
2024/01/06 09:21:33;;;;;;;8.00;5.70;;;7.70;82.90;;;;;;4747811;30;20106;-91
2024/01/06 09:24:05;;;;;;;7.80;5.50;;;7.70;83.60;;;;;;4764370;30;20052;-90
2024/01/06 09:26:33;;;;;;;7.85;5.47;;;7.70;83.60;;;;;;4753270;30;20036;-88
2024/01/06 09:29:00;;;;;;;7.70;5.95;;;7.70;82.90;;;;;;4739511;30;20119;-89
2024/01/06 09:31:26;;;;;;;7.47;5.82;;;7.70;83.60;;;;;;4752792;30;20060;-91
2024/01/06 09:33:52;;;;;;;7.90;5.40;;;7.70;82.90;;;;;;4766628;30;20032;-90
2024/01/06 09:36:18;;;;;;;9.10;6.22;;;7.70;82.90;;;;;;4733987;30;20125;-91
2024/01/06 09:38:44;;;;;;;9.30;5.97;;;7.60;82.90;;;;;;4756794;30;20036;-93
2024/01/06 09:41:11;;;;;;;7.85;5.95;;;7.60;82.90;;;;;;4745580;30;20035;-88
2024/01/06 09:43:38;;;;;;;8.68;6.28;;;7.60;82.90;;;;;;4773686;30;20050;-94
2024/01/06 09:46:40;;;;;;;8.65;5.88;;;7.60;82.80;;;;;;4773703;30;20051;-90
2024/01/06 09:49:06;;;;;;;8.43;5.78;;;7.60;83.00;;;;;;4712249;30;20088;-92
2024/01/06 09:51:37;;;;;;;9.40;6.72;;;7.60;82.90;;;;;;4749647;30;20036;-89
2024/01/06 09:54:07;;;;;;;7.72;6.22;;;7.60;82.90;;;;;;4753263;30;20051;-92
2024/01/06 09:56:34;;;;;;;8.85;6.25;;;7.60;82.90;;;;;;4753157;30;20047;-90
2024/01/06 09:59:00;;;;;;;7.20;5.57;;;7.60;82.90;;;;;;4741344;30;20503;-86
2024/01/06 10:01:26;;;;;;;8.73;5.57;;;7.60;82.90;;;;;;4742273;30;20036;-89
2024/01/06 10:03:52;;;;;;;9.00;6.63;;;7.60;82.90;;;;;;4769303;30;20028;-88
2024/01/06 10:06:20;;;;;;;9.32;6.35;;;7.60;82.90;;;;;;4768816;30;20063;-90
2024/01/06 10:08:50;;;;;;;9.95;6.75;;;7.60;82.90;;;;;;4753858;30;20093;-88
2024/01/06 10:11:17;;;;;;;8.85;6.57;;;7.60;83.00;;;;;;4763543;30;20584;-89
2024/01/06 10:13:43;;;;;;;9.15;6.97;;;7.60;82.90;;;;;;4739100;30;20225;-90
2024/01/06 10:16:09;;;;;;;8.50;6.15;;;7.60;82.90;;;;;;4749110;30;20123;-90
2024/01/06 10:18:36;;;;;;;8.80;6.75;;;7.50;82.90;;;;;;4763782;30;20035;-89
2024/01/06 10:21:05;;;;;;;9.48;6.65;;;7.50;82.80;;;;;;4752845;30;20485;-92
2024/01/06 10:23:32;;;;;;;9.10;6.95;;;7.50;82.90;;;;;;4751217;30;20388;-92
2024/01/06 10:25:58;;;;;;;8.88;6.70;;;7.50;82.90;;;;;;4750485;30;20032;-90
2024/01/06 10:28:26;;;;;;;9.13;7.25;;;7.50;82.80;;;;;;4749262;30;20062;-89
2024/01/06 10:30:53;;;;;;;9.95;6.50;;;7.50;82.80;;;;;;4743183;30;20503;-92
2024/01/06 10:33:24;;;;;;;8.45;6.75;;;7.50;82.90;;;;;;4766277;30;20523;-88
2024/01/06 10:35:52;;;;;;;9.15;6.72;;;7.50;82.90;;;;;;4754900;30;20032;-91
2024/01/06 10:38:19;;;;;;;9.18;7.15;;;7.50;82.80;;;;;;4755252;30;20043;-90
2024/01/06 10:41:07;;;;;;;9.27;7.00;;;7.50;83.50;;;;;;4770856;30;20047;-89
2024/01/06 10:43:41;;;;;;;8.95;6.70;;;7.50;82.90;;;;;;4758291;30;20285;-91
2024/01/06 10:46:10;;;;;;;9.47;6.80;;;7.50;82.80;;;;;;4741315;30;20051;-94
2024/01/06 10:48:42;;;;;;;9.18;6.95;;;7.50;82.80;;;;;;4744745;30;20039;-86
2024/01/06 10:51:09;;;;;;;9.10;7.15;;;7.40;82.80;;;;;;4737502;30;20020;-90
2024/01/06 10:53:38;;;;;;;8.65;6.60;;;7.40;82.80;;;;;;4751073;30;20028;-91
2024/01/06 10:56:08;;;;;;;9.25;6.93;;;7.40;82.90;;;;;;4750581;30;20047;-92
2024/01/06 10:58:42;;;;;;;9.52;7.20;;;7.40;82.90;;;;;;4752548;30;20051;-91
2024/01/06 11:01:09;;;;;;;9.02;6.80;;;7.40;82.90;;;;;;4754571;30;20074;-94
2024/01/06 11:03:39;;;;;;;8.70;6.60;;;7.40;82.80;;;;;;4753323;30;20036;-92
2024/01/06 11:06:11;;;;;;;10.15;7.10;;;7.40;82.90;;;;;;4753020;30;20024;-93
2024/01/06 11:09:02;;;;;;;9.60;7.22;;;7.40;82.90;;;;;;4753846;30;20040;-90
2024/01/06 11:11:28;;;;;;;8.18;6.43;;;7.40;82.90;;;;;;4752505;30;20052;-88
2024/01/06 11:14:20;;;;;;;9.35;6.70;;;7.40;82.80;;;;;;4739182;30;20035;-89
2024/01/06 11:16:46;;;;;;;8.93;5.95;;;7.40;82.90;;;;;;4746730;30;20032;-89
2024/01/06 11:19:33;;;;;;;9.18;7.25;;;7.40;82.80;;;;;;4752223;30;20088;-92
2024/01/06 11:22:22;;;;;;;9.77;6.57;;;7.40;82.90;;;;;;4739776;30;20028;-90
2024/01/06 11:24:53;;;;;;;8.73;6.88;;;7.40;82.90;;;;;;4752130;30;20028;-96
2024/01/06 11:27:31;;;;;;;9.75;7.18;;;7.40;82.80;;;;;;4745810;30;20118;-92
2024/01/06 11:30:05;;;;;;;9.10;6.88;;;7.40;83.50;;;;;;4756338;30;20067;-92
2024/01/06 11:32:35;;;;;;;9.23;6.88;;;7.40;82.90;;;;;;4756839;30;20086;-90
2024/01/06 11:35:08;;;;;;;8.20;6.32;;;7.40;82.80;;;;;;4745960;30;20109;-92
2024/01/06 11:37:38;;;;;;;8.65;6.53;;;7.40;82.90;;;;;;4755562;30;20154;-90
2024/01/06 11:40:09;;;;;;;8.55;6.80;;;7.40;82.90;;;;;;4750726;30;20032;-91
2024/01/06 11:42:35;;;;;;;9.75;6.43;;;7.40;82.90;;;;;;4738508;30;20027;-92
2024/01/06 11:45:05;;;;;;;8.27;6.65;;;7.40;82.90;;;;;;4768695;30;20053;-90
2024/01/06 11:47:33;;;;;;;8.23;6.43;;;7.40;82.90;;;;;;4749512;30;20028;-88
2024/01/06 11:50:00;;;;;;;9.05;6.60;;;7.40;82.80;;;;;;4739369;30;20029;-89
2024/01/06 11:52:27;;;;;;;8.68;6.63;;;7.40;82.80;;;;;;4742362;30;20032;-92
2024/01/06 11:54:57;;;;;;;8.70;7.13;;;7.40;82.80;;;;;;4747479;30;20044;-90
2024/01/06 11:57:23;;;;;;;8.55;6.30;;;7.30;82.80;;;;;;4748297;30;20048;-92
2024/01/06 11:59:50;;;;;;;8.30;6.53;;;7.40;82.80;;;;;;4750654;30;20040;-95
2024/01/06 12:02:18;;;;;;;8.45;6.82;;;7.30;82.80;;;;;;4749120;30;20040;-84
2024/01/06 12:04:49;;;;;;;8.27;6.28;;;7.40;82.80;;;;;;4750901;30;20040;-93
2024/01/06 12:07:17;;;;;;;9.20;6.93;;;7.40;82.90;;;;;;4748241;30;20153;-85
2024/01/06 12:09:43;;;;;;;9.65;7.20;;;7.30;82.80;;;;;;4748003;30;20032;-91
2024/01/06 12:12:10;;;;;;;8.43;6.43;;;7.40;82.90;;;;;;4750499;30;20051;-91
2024/01/06 12:14:36;;;;;;;8.55;6.78;;;7.30;82.80;;;;;;4755912;30;20056;-94
2024/01/06 12:17:03;;;;;;;7.82;6.00;;;7.30;82.80;;;;;;4771840;30;20032;-96
2024/01/06 12:19:31;;;;;;;8.30;6.63;;;7.30;82.80;;;;;;4776008;30;20040;-95
2024/01/06 12:21:57;;;;;;;8.68;6.57;;;7.30;82.80;;;;;;4756345;30;20059;-94
2024/01/06 12:24:23;;;;;;;8.40;6.53;;;7.30;82.80;;;;;;4769021;30;20036;-92
2024/01/06 12:26:51;;;;;;;8.57;6.60;;;7.30;82.80;;;;;;4750007;30;20040;-92
2024/01/06 12:29:19;;;;;;;8.57;6.55;;;7.40;82.80;;;;;;4753839;30;20086;-88
2024/01/06 12:31:46;;;;;;;8.80;6.97;;;7.30;82.80;;;;;;4747616;30;20032;-88
2024/01/06 12:34:12;;;;;;;9.23;7.22;;;7.40;82.90;;;;;;4743875;30;20039;-92
2024/01/06 12:36:39;;;;;;;7.72;6.05;;;7.30;82.80;;;;;;4749298;30;20028;-91
2024/01/06 12:39:14;;;;;;;8.15;6.45;;;7.30;82.80;;;;;;4745596;30;20066;-87
2024/01/06 12:41:41;;;;;;;8.30;6.57;;;7.30;82.80;;;;;;4747728;30;20036;-95
2024/01/06 12:44:08;;;;;;;8.45;6.63;;;7.30;82.80;;;;;;4747145;30;20029;-87
2024/01/06 12:46:34;;;;;;;9.10;6.93;;;7.30;82.80;;;;;;4733038;30;20044;-92
2024/01/06 12:49:02;;;;;;;8.25;6.38;;;7.30;82.80;;;;;;4735516;30;20112;-85
2024/01/06 12:51:29;;;;;;;7.40;6.03;;;7.30;82.80;;;;;;4733551;30;20044;-88
2024/01/06 12:53:55;;;;;;;8.32;6.43;;;7.30;82.80;;;;;;4730343;30;20037;-89
2024/01/06 12:56:22;;;;;;;8.90;6.75;;;7.30;82.80;;;;;;4751251;30;20081;-93